sensor_id;sensor_type;location;lat;lon;timestamp;pressure;altitude;pressure_sealevel;temperature;humidity
48862;BME280;34681;49.188;-0.374;2023-02-19T00:01:30;102450.56;;;13.85;73.62
48862;BME280;34681;49.188;-0.374;2023-02-19T00:04:27;102442.13;;;13.97;73.16
48862;BME280;34681;49.188;-0.374;2023-02-19T00:06:52;102432.78;;;13.77;73.25
48862;BME280;34681;49.188;-0.374;2023-02-19T00:09:18;102429.44;;;13.74;73.64
48862;BME280;34681;49.188;-0.374;2023-02-19T00:11:44;102439.66;;;13.72;73.17
48862;BME280;34681;49.188;-0.374;2023-02-19T00:14:14;102458.53;;;13.88;73.04
48862;BME280;34681;49.188;-0.374;2023-02-19T00:16:40;102451.41;;;13.96;72.60
48862;BME280;34681;49.188;-0.374;2023-02-19T00:19:09;102461.78;;;13.82;72.83
48862;BME280;34681;49.188;-0.374;2023-02-19T00:21:36;102465.81;;;14.00;72.53
48862;BME280;34681;49.188;-0.374;2023-02-19T00:24:03;102473.81;;;13.92;72.61
48862;BME280;34681;49.188;-0.374;2023-02-19T00:26:29;102478.16;;;14.05;72.29
48862;BME280;34681;49.188;-0.374;2023-02-19T00:28:56;102457.94;;;13.62;72.80
48862;BME280;34681;49.188;-0.374;2023-02-19T00:31:26;102467.31;;;13.70;72.99
48862;BME280;34681;49.188;-0.374;2023-02-19T00:33:57;102454.31;;;13.72;73.02
48862;BME280;34681;49.188;-0.374;2023-02-19T00:36:24;102460.19;;;13.79;72.64
48862;BME280;34681;49.188;-0.374;2023-02-19T00:38:51;102459.81;;;13.61;72.94
48862;BME280;34681;49.188;-0.374;2023-02-19T00:41:17;102459.19;;;13.80;72.64
48862;BME280;34681;49.188;-0.374;2023-02-19T00:43:54;102463.28;;;13.97;72.05
48862;BME280;34681;49.188;-0.374;2023-02-19T00:48:52;102476.06;;;13.75;71.88
48862;BME280;34681;49.188;-0.374;2023-02-19T00:51:19;102472.31;;;13.88;72.09
48862;BME280;34681;49.188;-0.374;2023-02-19T00:53:45;102476.19;;;13.85;71.64
48862;BME280;34681;49.188;-0.374;2023-02-19T00:56:11;102474.53;;;14.05;71.00
48862;BME280;34681;49.188;-0.374;2023-02-19T00:58:37;102482.03;;;14.14;70.91
48862;BME280;34681;49.188;-0.374;2023-02-19T01:01:03;102484.41;;;14.19;70.49
48862;BME280;34681;49.188;-0.374;2023-02-19T01:03:31;102473.66;;;14.16;70.38
48862;BME280;34681;49.188;-0.374;2023-02-19T01:05:56;102482.28;;;14.11;70.46
48862;BME280;34681;49.188;-0.374;2023-02-19T01:08:21;102483.19;;;14.00;70.52
48862;BME280;34681;49.188;-0.374;2023-02-19T01:10:47;102473.81;;;13.81;70.83
48862;BME280;34681;49.188;-0.374;2023-02-19T01:13:13;102477.31;;;13.71;71.41
48862;BME280;34681;49.188;-0.374;2023-02-19T01:15:38;102478.94;;;13.85;71.09
48862;BME280;34681;49.188;-0.374;2023-02-19T01:18:04;102481.81;;;13.84;70.99
48862;BME280;34681;49.188;-0.374;2023-02-19T01:20:29;102476.94;;;13.87;71.07
48862;BME280;34681;49.188;-0.374;2023-02-19T01:22:55;102471.91;;;14.03;70.50
48862;BME280;34681;49.188;-0.374;2023-02-19T01:25:21;102479.56;;;13.89;70.39
48862;BME280;34681;49.188;-0.374;2023-02-19T01:27:47;102488.69;;;13.89;70.11
48862;BME280;34681;49.188;-0.374;2023-02-19T01:30:12;102491.44;;;13.78;69.63
48862;BME280;34681;49.188;-0.374;2023-02-19T01:32:38;102492.31;;;13.45;70.12
48862;BME280;34681;49.188;-0.374;2023-02-19T01:35:04;102488.47;;;13.59;69.74
48862;BME280;34681;49.188;-0.374;2023-02-19T01:37:29;102489.44;;;13.80;69.07
48862;BME280;34681;49.188;-0.374;2023-02-19T01:39:55;102500.69;;;13.88;68.58
48862;BME280;34681;49.188;-0.374;2023-02-19T01:42:20;102509.09;;;13.75;68.43
48862;BME280;34681;49.188;-0.374;2023-02-19T01:47:12;102508.19;;;13.64;68.38
48862;BME280;34681;49.188;-0.374;2023-02-19T01:49:43;102496.44;;;13.62;68.47
48862;BME280;34681;49.188;-0.374;2023-02-19T01:54:43;102505.91;;;13.35;69.41
48862;BME280;34681;49.188;-0.374;2023-02-19T01:57:15;102509.16;;;13.29;69.67
48862;BME280;34681;49.188;-0.374;2023-02-19T01:59:43;102522.88;;;12.94;70.89
48862;BME280;34681;49.188;-0.374;2023-02-19T02:02:09;102510.09;;;12.82;71.39
48862;BME280;34681;49.188;-0.374;2023-02-19T02:04:36;102522.63;;;12.97;71.15
48862;BME280;34681;49.188;-0.374;2023-02-19T02:07:03;102529.00;;;12.98;69.75
48862;BME280;34681;49.188;-0.374;2023-02-19T02:09:50;102521.91;;;12.71;69.62
48862;BME280;34681;49.188;-0.374;2023-02-19T02:12:34;102533.03;;;12.70;69.23
48862;BME280;34681;49.188;-0.374;2023-02-19T02:14:59;102546.47;;;12.61;69.07
48862;BME280;34681;49.188;-0.374;2023-02-19T02:30:42;102519.97;;;12.36;68.82
48862;BME280;34681;49.188;-0.374;2023-02-19T02:35:47;102533.97;;;12.21;69.00
48862;BME280;34681;49.188;-0.374;2023-02-19T02:38:15;102527.22;;;12.37;68.70
48862;BME280;34681;49.188;-0.374;2023-02-19T02:40:43;102542.00;;;12.48;68.31
48862;BME280;34681;49.188;-0.374;2023-02-19T02:43:10;102529.50;;;12.44;68.34
48862;BME280;34681;49.188;-0.374;2023-02-19T02:45:36;102530.91;;;12.49;68.42
48862;BME280;34681;49.188;-0.374;2023-02-19T02:48:09;102532.41;;;12.66;67.71
48862;BME280;34681;49.188;-0.374;2023-02-19T02:50:41;102538.56;;;12.57;67.84
48862;BME280;34681;49.188;-0.374;2023-02-19T02:53:15;102540.38;;;12.45;68.36
48862;BME280;34681;49.188;-0.374;2023-02-19T02:56:02;102536.44;;;12.36;68.78
48862;BME280;34681;49.188;-0.374;2023-02-19T02:58:28;102527.94;;;12.52;68.37
48862;BME280;34681;49.188;-0.374;2023-02-19T03:01:00;102516.84;;;12.54;68.24
48862;BME280;34681;49.188;-0.374;2023-02-19T03:03:48;102512.34;;;12.53;68.39
48862;BME280;34681;49.188;-0.374;2023-02-19T03:06:17;102504.72;;;12.56;68.30
48862;BME280;34681;49.188;-0.374;2023-02-19T03:08:55;102504.44;;;12.48;67.98
48862;BME280;34681;49.188;-0.374;2023-02-19T03:11:23;102505.13;;;12.39;68.32
48862;BME280;34681;49.188;-0.374;2023-02-19T03:14:15;102514.72;;;12.57;67.79
48862;BME280;34681;49.188;-0.374;2023-02-19T03:17:12;102516.28;;;12.97;67.04
48862;BME280;34681;49.188;-0.374;2023-02-19T03:20:02;102516.53;;;12.70;67.47
48862;BME280;34681;49.188;-0.374;2023-02-19T03:22:32;102521.00;;;12.59;67.89
48862;BME280;34681;49.188;-0.374;2023-02-19T03:25:20;102516.06;;;12.28;68.36
48862;BME280;34681;49.188;-0.374;2023-02-19T03:28:08;102514.75;;;12.21;68.69
48862;BME280;34681;49.188;-0.374;2023-02-19T03:30:38;102516.25;;;12.37;68.19
48862;BME280;34681;49.188;-0.374;2023-02-19T03:33:10;102524.31;;;12.52;67.63
48862;BME280;34681;49.188;-0.374;2023-02-19T03:35:41;102523.56;;;12.50;67.79
48862;BME280;34681;49.188;-0.374;2023-02-19T03:40:53;102522.75;;;12.24;67.91
48862;BME280;34681;49.188;-0.374;2023-02-19T03:43:41;102522.16;;;12.44;67.59
48862;BME280;34681;49.188;-0.374;2023-02-19T03:46:13;102533.56;;;12.51;67.84
48862;BME280;34681;49.188;-0.374;2023-02-19T03:49:02;102526.13;;;12.64;67.26
48862;BME280;34681;49.188;-0.374;2023-02-19T03:51:35;102535.63;;;12.47;67.58
48862;BME280;34681;49.188;-0.374;2023-02-19T03:57:06;102533.00;;;12.46;67.92
48862;BME280;34681;49.188;-0.374;2023-02-19T03:59:47;102535.41;;;12.74;67.17
48862;BME280;34681;49.188;-0.374;2023-02-19T04:02:18;102527.41;;;12.47;67.62
48862;BME280;34681;49.188;-0.374;2023-02-19T04:04:52;102534.69;;;12.35;68.16
48862;BME280;34681;49.188;-0.374;2023-02-19T04:07:20;102529.63;;;12.42;68.03
48862;BME280;34681;49.188;-0.374;2023-02-19T04:09:48;102543.72;;;12.61;67.60
48862;BME280;34681;49.188;-0.374;2023-02-19T04:12:17;102551.25;;;12.71;67.44
48862;BME280;34681;49.188;-0.374;2023-02-19T04:14:52;102545.34;;;12.64;67.45
48862;BME280;34681;49.188;-0.374;2023-02-19T04:17:26;102553.38;;;12.67;67.66
48862;BME280;34681;49.188;-0.374;2023-02-19T04:19:55;102556.59;;;12.48;67.69
48862;BME280;34681;49.188;-0.374;2023-02-19T04:22:23;102555.91;;;12.33;68.31
48862;BME280;34681;49.188;-0.374;2023-02-19T04:24:51;102567.50;;;12.50;67.80
48862;BME280;34681;49.188;-0.374;2023-02-19T04:27:17;102565.13;;;12.56;67.90
48862;BME280;34681;49.188;-0.374;2023-02-19T04:29:43;102565.34;;;12.66;67.91
48862;BME280;34681;49.188;-0.374;2023-02-19T04:32:10;102562.47;;;12.91;67.16
48862;BME280;34681;49.188;-0.374;2023-02-19T04:34:35;102569.91;;;12.78;67.38
48862;BME280;34681;49.188;-0.374;2023-02-19T04:37:01;102578.16;;;13.13;66.49
48862;BME280;34681;49.188;-0.374;2023-02-19T04:39:26;102581.03;;;13.12;66.57
48862;BME280;34681;49.188;-0.374;2023-02-19T04:41:51;102574.06;;;12.84;67.07
48862;BME280;34681;49.188;-0.374;2023-02-19T04:44:17;102576.78;;;13.08;66.68
48862;BME280;34681;49.188;-0.374;2023-02-19T04:46:42;102579.13;;;12.77;67.15
48862;BME280;34681;49.188;-0.374;2023-02-19T04:49:08;102576.44;;;12.88;66.79
48862;BME280;34681;49.188;-0.374;2023-02-19T04:51:33;102576.97;;;12.93;66.95
48862;BME280;34681;49.188;-0.374;2023-02-19T04:53:58;102588.16;;;13.14;66.47
48862;BME280;34681;49.188;-0.374;2023-02-19T04:56:24;102594.09;;;13.21;66.21
48862;BME280;34681;49.188;-0.374;2023-02-19T04:58:49;102600.25;;;13.25;66.22
48862;BME280;34681;49.188;-0.374;2023-02-19T05:01:15;102606.97;;;13.20;66.08
48862;BME280;34681;49.188;-0.374;2023-02-19T05:03:40;102609.06;;;13.17;66.15
48862;BME280;34681;49.188;-0.374;2023-02-19T05:06:08;102606.53;;;13.14;66.35
48862;BME280;34681;49.188;-0.374;2023-02-19T05:08:35;102599.53;;;12.86;66.89
48862;BME280;34681;49.188;-0.374;2023-02-19T05:11:02;102607.69;;;12.51;67.47
48862;BME280;34681;49.188;-0.374;2023-02-19T05:13:28;102605.88;;;12.62;67.63
48862;BME280;34681;49.188;-0.374;2023-02-19T05:16:01;102617.19;;;12.34;67.40
48862;BME280;34681;49.188;-0.374;2023-02-19T05:18:28;102612.75;;;12.31;67.02
48862;BME280;34681;49.188;-0.374;2023-02-19T05:20:56;102624.47;;;12.59;66.80
48862;BME280;34681;49.188;-0.374;2023-02-19T05:23:22;102624.47;;;12.59;66.90
48862;BME280;34681;49.188;-0.374;2023-02-19T05:25:48;102617.25;;;12.45;67.04
48862;BME280;34681;49.188;-0.374;2023-02-19T05:28:14;102623.13;;;12.64;66.87
48862;BME280;34681;49.188;-0.374;2023-02-19T05:30:47;102621.38;;;12.63;67.05
48862;BME280;34681;49.188;-0.374;2023-02-19T05:33:14;102625.84;;;12.77;66.68
48862;BME280;34681;49.188;-0.374;2023-02-19T05:35:43;102625.16;;;12.74;67.41
48862;BME280;34681;49.188;-0.374;2023-02-19T05:38:09;102634.81;;;12.79;67.12
48862;BME280;34681;49.188;-0.374;2023-02-19T05:40:35;102637.56;;;12.79;67.45
48862;BME280;34681;49.188;-0.374;2023-02-19T05:43:01;102631.59;;;12.61;67.56
48862;BME280;34681;49.188;-0.374;2023-02-19T05:45:27;102624.19;;;12.75;67.58
48862;BME280;34681;49.188;-0.374;2023-02-19T05:47:52;102627.63;;;13.13;66.34
48862;BME280;34681;49.188;-0.374;2023-02-19T05:50:17;102628.59;;;13.01;66.80
48862;BME280;34681;49.188;-0.374;2023-02-19T05:52:43;102638.88;;;12.86;66.98
48862;BME280;34681;49.188;-0.374;2023-02-19T05:55:09;102639.88;;;12.85;67.02
48862;BME280;34681;49.188;-0.374;2023-02-19T05:57:42;102645.09;;;13.01;66.78
48862;BME280;34681;49.188;-0.374;2023-02-19T06:00:09;102640.63;;;13.11;66.13
48862;BME280;34681;49.188;-0.374;2023-02-19T06:02:35;102644.53;;;12.96;66.53
48862;BME280;34681;49.188;-0.374;2023-02-19T06:05:01;102645.53;;;12.95;66.42
48862;BME280;34681;49.188;-0.374;2023-02-19T06:07:26;102656.03;;;12.77;66.82
48862;BME280;34681;49.188;-0.374;2023-02-19T06:09:52;102651.84;;;12.84;66.59
48862;BME280;34681;49.188;-0.374;2023-02-19T06:12:17;102653.06;;;12.80;66.39
48862;BME280;34681;49.188;-0.374;2023-02-19T06:14:42;102654.13;;;12.90;66.38
48862;BME280;34681;49.188;-0.374;2023-02-19T06:17:08;102656.94;;;13.02;66.12
48862;BME280;34681;49.188;-0.374;2023-02-19T06:19:33;102645.72;;;13.29;65.01
48862;BME280;34681;49.188;-0.374;2023-02-19T06:21:58;102646.31;;;13.21;65.01
48862;BME280;34681;49.188;-0.374;2023-02-19T06:24:24;102644.25;;;13.12;65.13
48862;BME280;34681;49.188;-0.374;2023-02-19T06:26:49;102648.63;;;12.90;65.48
48862;BME280;34681;49.188;-0.374;2023-02-19T06:29:15;102652.50;;;13.12;65.07
48862;BME280;34681;49.188;-0.374;2023-02-19T06:31:41;102653.94;;;13.05;65.23
48862;BME280;34681;49.188;-0.374;2023-02-19T06:34:08;102652.25;;;13.15;64.84
48862;BME280;34681;49.188;-0.374;2023-02-19T06:36:33;102657.66;;;13.16;64.86
48862;BME280;34681;49.188;-0.374;2023-02-19T06:38:59;102653.78;;;13.19;64.64
48862;BME280;34681;49.188;-0.374;2023-02-19T06:41:25;102660.44;;;13.04;64.65
48862;BME280;34681;49.188;-0.374;2023-02-19T06:43:50;102659.41;;;13.17;64.58
48862;BME280;34681;49.188;-0.374;2023-02-19T06:46:16;102658.88;;;13.12;64.39
48862;BME280;34681;49.188;-0.374;2023-02-19T06:48:42;102668.81;;;13.02;64.72
48862;BME280;34681;49.188;-0.374;2023-02-19T06:51:11;102672.94;;;13.20;64.50
48862;BME280;34681;49.188;-0.374;2023-02-19T06:53:41;102675.97;;;13.29;64.20
48862;BME280;34681;49.188;-0.374;2023-02-19T06:56:35;102679.38;;;13.32;64.16
48862;BME280;34681;49.188;-0.374;2023-02-19T06:59:04;102688.63;;;12.94;64.80
48862;BME280;34681;49.188;-0.374;2023-02-19T07:01:32;102688.38;;;12.98;64.96
48862;BME280;34681;49.188;-0.374;2023-02-19T07:03:58;102696.91;;;13.18;64.43
48862;BME280;34681;49.188;-0.374;2023-02-19T07:06:24;102690.72;;;13.15;64.67
48862;BME280;34681;49.188;-0.374;2023-02-19T07:08:51;102694.44;;;12.90;65.09
48862;BME280;34681;49.188;-0.374;2023-02-19T07:11:17;102698.50;;;12.97;64.99
48862;BME280;34681;49.188;-0.374;2023-02-19T07:13:43;102707.78;;;13.20;64.48
48862;BME280;34681;49.188;-0.374;2023-02-19T07:16:10;102710.53;;;13.07;64.53
48862;BME280;34681;49.188;-0.374;2023-02-19T07:18:36;102716.09;;;12.94;65.10
48862;BME280;34681;49.188;-0.374;2023-02-19T07:21:03;102708.09;;;13.28;64.47
48862;BME280;34681;49.188;-0.374;2023-02-19T07:23:29;102698.72;;;13.55;63.60
48862;BME280;34681;49.188;-0.374;2023-02-19T07:25:55;102712.53;;;13.42;64.10
48862;BME280;34681;49.188;-0.374;2023-02-19T07:28:20;102716.22;;;13.54;63.86
48862;BME280;34681;49.188;-0.374;2023-02-19T07:30:45;102710.19;;;13.48;63.94
48862;BME280;34681;49.188;-0.374;2023-02-19T07:33:11;102716.63;;;13.60;63.72
48862;BME280;34681;49.188;-0.374;2023-02-19T07:35:36;102716.38;;;13.63;63.89
48862;BME280;34681;49.188;-0.374;2023-02-19T07:38:01;102727.03;;;13.68;63.67
48862;BME280;34681;49.188;-0.374;2023-02-19T07:40:27;102727.78;;;13.70;63.51
48862;BME280;34681;49.188;-0.374;2023-02-19T07:42:52;102717.91;;;13.67;63.61
48862;BME280;34681;49.188;-0.374;2023-02-19T07:45:17;102723.53;;;13.66;63.69
48862;BME280;34681;49.188;-0.374;2023-02-19T07:47:43;102731.78;;;13.66;63.58
48862;BME280;34681;49.188;-0.374;2023-02-19T07:50:08;102727.66;;;13.71;63.46
48862;BME280;34681;49.188;-0.374;2023-02-19T07:52:34;102748.34;;;13.88;63.29
48862;BME280;34681;49.188;-0.374;2023-02-19T07:54:59;102739.34;;;13.86;63.10
48862;BME280;34681;49.188;-0.374;2023-02-19T07:57:26;102739.75;;;13.93;63.07
48862;BME280;34681;49.188;-0.374;2023-02-19T07:59:52;102746.75;;;13.97;62.96
48862;BME280;34681;49.188;-0.374;2023-02-19T08:02:19;102749.66;;;14.06;62.62
48862;BME280;34681;49.188;-0.374;2023-02-19T08:05:04;102739.41;;;14.09;62.38
48862;BME280;34681;49.188;-0.374;2023-02-19T08:07:32;102741.44;;;14.18;62.33
48862;BME280;34681;49.188;-0.374;2023-02-19T08:09:57;102743.53;;;14.03;62.52
48862;BME280;34681;49.188;-0.374;2023-02-19T08:12:42;102736.81;;;14.18;62.18
48862;BME280;34681;49.188;-0.374;2023-02-19T08:15:26;102743.31;;;14.17;62.09
48862;BME280;34681;49.188;-0.374;2023-02-19T08:17:51;102752.47;;;14.29;61.47
48862;BME280;34681;49.188;-0.374;2023-02-19T08:20:16;102753.25;;;14.42;61.30
48862;BME280;34681;49.188;-0.374;2023-02-19T08:22:42;102754.03;;;14.55;61.20
48862;BME280;34681;49.188;-0.374;2023-02-19T08:25:07;102741.78;;;14.48;61.28
48862;BME280;34681;49.188;-0.374;2023-02-19T08:27:33;102738.25;;;14.69;60.88
48862;BME280;34681;49.188;-0.374;2023-02-19T08:29:58;102740.91;;;14.81;60.53
48862;BME280;34681;49.188;-0.374;2023-02-19T08:32:23;102759.06;;;14.50;60.47
48862;BME280;34681;49.188;-0.374;2023-02-19T08:34:49;102766.63;;;14.36;60.61
48862;BME280;34681;49.188;-0.374;2023-02-19T08:37:14;102770.59;;;14.67;60.34
48862;BME280;34681;49.188;-0.374;2023-02-19T08:39:39;102770.31;;;14.81;59.92
48862;BME280;34681;49.188;-0.374;2023-02-19T08:42:05;102777.47;;;14.61;59.95
48862;BME280;34681;49.188;-0.374;2023-02-19T08:44:31;102772.34;;;14.90;59.42
48862;BME280;34681;49.188;-0.374;2023-02-19T08:46:57;102778.59;;;15.03;59.22
48862;BME280;34681;49.188;-0.374;2023-02-19T08:49:25;102778.97;;;14.76;59.46
48862;BME280;34681;49.188;-0.374;2023-02-19T08:51:51;102776.34;;;14.86;59.20
48862;BME280;34681;49.188;-0.374;2023-02-19T08:54:16;102782.22;;;15.04;59.25
48862;BME280;34681;49.188;-0.374;2023-02-19T08:56:41;102787.19;;;15.32;58.68
48862;BME280;34681;49.188;-0.374;2023-02-19T08:59:07;102769.75;;;15.43;58.34
48862;BME280;34681;49.188;-0.374;2023-02-19T09:01:33;102776.09;;;15.55;57.77
48862;BME280;34681;49.188;-0.374;2023-02-19T09:03:58;102786.94;;;15.35;58.02
48862;BME280;34681;49.188;-0.374;2023-02-19T09:06:24;102771.94;;;15.60;57.76
48862;BME280;34681;49.188;-0.374;2023-02-19T09:08:49;102775.59;;;15.61;57.88
48862;BME280;34681;49.188;-0.374;2023-02-19T09:11:14;102783.84;;;15.72;57.55
48862;BME280;34681;49.188;-0.374;2023-02-19T09:13:40;102781.59;;;15.55;57.72
48862;BME280;34681;49.188;-0.374;2023-02-19T09:16:06;102787.66;;;15.92;56.86
48862;BME280;34681;49.188;-0.374;2023-02-19T09:18:31;102782.69;;;16.07;56.76
48862;BME280;34681;49.188;-0.374;2023-02-19T09:21:01;102769.03;;;16.26;56.30
48862;BME280;34681;49.188;-0.374;2023-02-19T09:23:29;102770.97;;;15.93;56.56
48862;BME280;34681;49.188;-0.374;2023-02-19T09:25:58;102781.00;;;15.51;57.07
48862;BME280;34681;49.188;-0.374;2023-02-19T09:28:25;102791.66;;;15.56;57.29
48862;BME280;34681;49.188;-0.374;2023-02-19T09:30:50;102799.06;;;15.66;56.85
48862;BME280;34681;49.188;-0.374;2023-02-19T09:33:16;102785.69;;;15.83;57.00
48862;BME280;34681;49.188;-0.374;2023-02-19T09:35:41;102771.75;;;15.84;56.50
48862;BME280;34681;49.188;-0.374;2023-02-19T09:38:06;102772.50;;;15.43;57.15
48862;BME280;34681;49.188;-0.374;2023-02-19T09:40:35;102776.88;;;15.45;57.48
48862;BME280;34681;49.188;-0.374;2023-02-19T09:43:04;102779.47;;;15.58;57.42
48862;BME280;34681;49.188;-0.374;2023-02-19T09:45:30;102771.94;;;15.60;57.13
48862;BME280;34681;49.188;-0.374;2023-02-19T09:47:56;102778.09;;;15.53;57.30
48862;BME280;34681;49.188;-0.374;2023-02-19T09:50:29;102774.19;;;15.55;57.46
48862;BME280;34681;49.188;-0.374;2023-02-19T09:52:58;102771.22;;;15.47;57.75
48862;BME280;34681;49.188;-0.374;2023-02-19T09:55:37;102770.19;;;15.70;57.13
48862;BME280;34681;49.188;-0.374;2023-02-19T10:00:50;102779.38;;;16.13;56.12
48862;BME280;34681;49.188;-0.374;2023-02-19T10:03:24;102789.44;;;16.35;55.70
48862;BME280;34681;49.188;-0.374;2023-02-19T10:05:55;102787.56;;;16.14;55.50
48862;BME280;34681;49.188;-0.374;2023-02-19T10:08:21;102790.31;;;16.14;55.38
48862;BME280;34681;49.188;-0.374;2023-02-19T10:10:47;102798.25;;;16.08;54.90
48862;BME280;34681;49.188;-0.374;2023-02-19T10:13:31;102803.78;;;16.08;55.22
48862;BME280;34681;49.188;-0.374;2023-02-19T10:16:01;102807.28;;;15.78;55.62
48862;BME280;34681;49.188;-0.374;2023-02-19T10:18:28;102805.66;;;16.07;55.20
48862;BME280;34681;49.188;-0.374;2023-02-19T10:20:57;102814.47;;;16.01;55.83
48862;BME280;34681;49.188;-0.374;2023-02-19T10:23:23;102819.34;;;16.29;55.30
48862;BME280;34681;49.188;-0.374;2023-02-19T10:25:53;102817.19;;;16.54;54.69
48862;BME280;34681;49.188;-0.374;2023-02-19T10:28:22;102816.25;;;16.85;53.60
48862;BME280;34681;49.188;-0.374;2023-02-19T10:30:54;102822.97;;;16.93;54.04
48862;BME280;34681;49.188;-0.374;2023-02-19T10:33:21;102817.84;;;17.19;53.38
48862;BME280;34681;49.188;-0.374;2023-02-19T10:38:18;102835.72;;;16.63;53.40
48862;BME280;34681;49.188;-0.374;2023-02-19T10:40:45;102832.69;;;16.45;53.57
48862;BME280;34681;49.188;-0.374;2023-02-19T10:43:29;102842.09;;;16.75;52.96
48862;BME280;34681;49.188;-0.374;2023-02-19T10:46:04;102853.00;;;16.76;53.48
48862;BME280;34681;49.188;-0.374;2023-02-19T10:48:36;102862.63;;;16.61;52.97
48862;BME280;34681;49.188;-0.374;2023-02-19T10:51:12;102860.53;;;16.53;53.24
48862;BME280;34681;49.188;-0.374;2023-02-19T10:53:40;102853.91;;;17.07;52.54
48862;BME280;34681;49.188;-0.374;2023-02-19T10:56:09;102834.94;;;17.43;52.09
48862;BME280;34681;49.188;-0.374;2023-02-19T10:58:35;102829.38;;;17.24;51.50
48862;BME280;34681;49.188;-0.374;2023-02-19T11:03:41;102855.34;;;17.11;51.96
48862;BME280;34681;49.188;-0.374;2023-02-19T11:06:09;102852.28;;;16.63;51.36
48862;BME280;34681;49.188;-0.374;2023-02-19T11:08:57;102854.94;;;16.65;52.08
48862;BME280;34681;49.188;-0.374;2023-02-19T11:11:27;102850.22;;;16.97;51.71
48862;BME280;34681;49.188;-0.374;2023-02-19T11:13:55;102847.88;;;16.51;52.42
48862;BME280;34681;49.188;-0.374;2023-02-19T11:16:23;102851.66;;;16.71;52.02
48862;BME280;34681;49.188;-0.374;2023-02-19T11:19:00;102849.81;;;16.60;51.97
48862;BME280;34681;49.188;-0.374;2023-02-19T11:21:28;102852.78;;;16.68;51.78
48862;BME280;34681;49.188;-0.374;2023-02-19T11:23:58;102856.69;;;16.66;52.07
48862;BME280;34681;49.188;-0.374;2023-02-19T11:26:26;102861.06;;;17.20;51.52
48862;BME280;34681;49.188;-0.374;2023-02-19T11:28:59;102852.75;;;17.50;51.29
48862;BME280;34681;49.188;-0.374;2023-02-19T11:31:30;102851.53;;;17.74;50.91
48862;BME280;34681;49.188;-0.374;2023-02-19T11:36:45;102845.81;;;17.65;49.98
48862;BME280;34681;49.188;-0.374;2023-02-19T11:45:11;102859.13;;;18.10;49.29
48862;BME280;34681;49.188;-0.374;2023-02-19T11:53:24;102861.06;;;17.60;49.32
48862;BME280;34681;49.188;-0.374;2023-02-19T12:07:27;102854.91;;;16.76;51.82
48862;BME280;34681;49.188;-0.374;2023-02-19T12:15:46;102859.94;;;16.71;52.16
48862;BME280;34681;49.188;-0.374;2023-02-19T12:26:29;102842.06;;;17.36;50.33
48862;BME280;34681;49.188;-0.374;2023-02-19T12:39:49;102846.88;;;15.88;53.46
48862;BME280;34681;49.188;-0.374;2023-02-19T12:45:23;102861.59;;;17.04;51.23
48862;BME280;34681;49.188;-0.374;2023-02-19T12:48:04;102867.69;;;16.77;51.06
48862;BME280;34681;49.188;-0.374;2023-02-19T12:50:34;102862.72;;;16.18;52.85
48862;BME280;34681;49.188;-0.374;2023-02-19T12:53:07;102853.06;;;15.80;54.13
48862;BME280;34681;49.188;-0.374;2023-02-19T12:55:42;102846.28;;;15.07;54.81
48862;BME280;34681;49.188;-0.374;2023-02-19T12:58:19;102847.59;;;14.68;56.33
48862;BME280;34681;49.188;-0.374;2023-02-19T13:00:49;102844.31;;;14.17;57.87
48862;BME280;34681;49.188;-0.374;2023-02-19T13:06:02;102834.91;;;14.08;58.43
48862;BME280;34681;49.188;-0.374;2023-02-19T13:11:09;102829.94;;;14.48;57.04
48862;BME280;34681;49.188;-0.374;2023-02-19T13:14:00;102842.97;;;14.69;56.81
48862;BME280;34681;49.188;-0.374;2023-02-19T13:16:28;102835.94;;;14.29;57.31
48862;BME280;34681;49.188;-0.374;2023-02-19T13:19:02;102830.34;;;14.77;57.06
48862;BME280;34681;49.188;-0.374;2023-02-19T13:21:34;102828.09;;;14.82;57.00
48862;BME280;34681;49.188;-0.374;2023-02-19T13:24:31;102820.41;;;15.42;55.98
48862;BME280;34681;49.188;-0.374;2023-02-19T13:32:49;102826.16;;;15.61;54.89
48862;BME280;34681;49.188;-0.374;2023-02-19T13:38:09;102816.53;;;15.33;55.57
48862;BME280;34681;49.188;-0.374;2023-02-19T13:40:39;102818.78;;;15.39;55.43
48862;BME280;34681;49.188;-0.374;2023-02-19T13:43:21;102804.19;;;15.60;54.91
48862;BME280;34681;49.188;-0.374;2023-02-19T13:45:54;102813.81;;;15.77;54.54
48862;BME280;34681;49.188;-0.374;2023-02-19T13:50:50;102807.53;;;14.86;56.17
48862;BME280;34681;49.188;-0.374;2023-02-19T14:12:17;102781.69;;;15.21;55.71
48862;BME280;34681;49.188;-0.374;2023-02-19T14:14:47;102786.44;;;15.30;55.88
48862;BME280;34681;49.188;-0.374;2023-02-19T14:27:53;102776.97;;;15.66;55.79
48862;BME280;34681;49.188;-0.374;2023-02-19T14:30:19;102781.13;;;15.93;55.36
48862;BME280;34681;49.188;-0.374;2023-02-19T14:32:46;102771.69;;;15.75;55.27
48862;BME280;34681;49.188;-0.374;2023-02-19T14:35:30;102768.72;;;15.87;55.28
48862;BME280;34681;49.188;-0.374;2023-02-19T14:37:58;102766.38;;;15.83;55.41
48862;BME280;34681;49.188;-0.374;2023-02-19T14:40:33;102763.81;;;15.91;55.29
48862;BME280;34681;49.188;-0.374;2023-02-19T14:43:01;102761.53;;;15.96;55.17
48862;BME280;34681;49.188;-0.374;2023-02-19T14:45:28;102761.22;;;15.89;55.13
48862;BME280;34681;49.188;-0.374;2023-02-19T14:47:55;102760.38;;;15.78;55.09
48862;BME280;34681;49.188;-0.374;2023-02-19T14:50:29;102768.63;;;15.89;54.74
48862;BME280;34681;49.188;-0.374;2023-02-19T14:53:00;102771.75;;;15.84;55.59
48862;BME280;34681;49.188;-0.374;2023-02-19T14:55:30;102774.69;;;15.71;54.67
48862;BME280;34681;49.188;-0.374;2023-02-19T14:57:59;102762.66;;;15.72;55.30
48862;BME280;34681;49.188;-0.374;2023-02-19T15:00:27;102753.81;;;15.90;55.32
48862;BME280;34681;49.188;-0.374;2023-02-19T15:02:54;102755.72;;;15.78;55.13
48862;BME280;34681;49.188;-0.374;2023-02-19T15:05:24;102755.56;;;15.80;54.98
48862;BME280;34681;49.188;-0.374;2023-02-19T15:07:51;102772.78;;;15.83;55.29